Terminal Aerodrome Forecast
Issued by NWS Boston, MA

Home | Current Version | Previous Version | Text Only | Print | Product List | Glossary On
Versions: 1 2 3 4 5 6 7 8 9 10 11 12 13 14 15 16 17 18 19 20 21 22 23 24 25 26 27 28 29 30 31 32 33 34 35 36 37 38 39 40 41 42 43
000
FTUS41 KBOX 131427 AAA
TAFBDL
TAF AMD
KBDL 131427Z 1314/1418 21010G18KT P6SM SCT025 BKN050
     FM131600 19012G23KT P6SM BKN050
     FM140000 19012G19KT P6SM BKN040
     FM140400 18009KT P6SM OVC020
     FM140700 19007KT 3SM BR OVC015
     FM140900 18006KT 3SM -SHRA BR OVC020
     FM141500 20008KT 5SM -SHRA BKN050=

USA.gov is the U.S. government's official web portal to all federal, state and local government web resources and services.